Keller, Indiana
Current Conditions -  °F | °C
As of 7:53 AM on Sunday 23 Nov 2014 (Local Time) from KHUF Reporting Station
Clear Clear  
Wind Chill: 50°   Ceiling: Unl
Heat Index: 50°   Visibility: 10mi
Dew Point: 41°   Wind: 13mph
Humidity: 71%   Direction: 160°SSE
Pressure: 29.86"   Gusts: NA
Location:  39.3587°N, 87.4056°W
Report Text: KHUF 231253Z 16011KT 10SM CLR 10/05 A2986 RMK AO2 SLP112 T01000050
Loading
Personal Weather Stations






























Interactive Weather Map New forecast layout! Learn more

10-Day Weather Forecast

Advertisements
Track Severe Weather on mobile